Time;durP1;ratioP1;P1;durP2;ratioP2;P2;SDS_P1;SDS_P2;PMS_P1;PMS_P2;Temp;Humidity;BMP_temperature;BMP_pressure;BME280_temperature;BME280_humidity;BME280_pressure;Samples;Min_cycle;Max_cycle;Signal;HPM_P1;HPM_P2
2024/02/06 00:02:21;;;;;;;60.92;14.25;;;8.10;99.90;;;;;;5067946;28;20022;-58
2024/02/06 00:04:46;;;;;;;62.47;14.90;;;8.10;99.90;;;;;;5051253;28;20032;-58
2024/02/06 00:07:12;;;;;;;65.53;14.07;;;8.10;99.90;;;;;;5068083;28;20066;-58
2024/02/06 00:09:37;;;;;;;65.38;15.02;;;8.10;99.90;;;;;;5069214;28;20053;-58
2024/02/06 00:12:03;;;;;;;68.20;15.23;;;8.10;99.90;;;;;;5067928;28;20428;-57
2024/02/06 00:14:29;;;;;;;52.45;13.45;;;8.00;99.90;;;;;;5067645;28;20088;-58
2024/02/06 00:16:55;;;;;;;63.72;13.52;;;8.00;99.90;;;;;;5067895;28;20029;-58
2024/02/06 00:19:20;;;;;;;46.40;13.65;;;8.00;99.90;;;;;;5067659;28;20020;-58
2024/02/06 00:21:46;;;;;;;66.50;13.80;;;8.00;99.90;;;;;;5067444;28;20029;-58
2024/02/06 00:24:12;;;;;;;49.17;14.07;;;8.00;99.90;;;;;;5067457;28;20150;-57
2024/02/06 00:26:37;;;;;;;49.20;12.98;;;8.00;99.90;;;;;;5067575;28;20021;-58
2024/02/06 00:29:03;;;;;;;49.38;13.35;;;8.00;99.90;;;;;;5068930;28;20033;-58
2024/02/06 00:31:28;;;;;;;53.33;12.77;;;7.90;99.90;;;;;;5067625;28;20036;-57
2024/02/06 00:33:54;;;;;;;44.42;11.75;;;7.90;99.90;;;;;;5068667;28;20025;-58
2024/02/06 00:36:19;;;;;;;43.80;11.77;;;7.90;99.90;;;;;;5068170;28;20055;-58
2024/02/06 00:38:45;;;;;;;55.88;13.45;;;7.90;99.90;;;;;;5068493;28;20057;-58
2024/02/06 00:41:11;;;;;;;52.85;13.48;;;7.90;99.90;;;;;;5067470;28;20029;-58
2024/02/06 00:43:37;;;;;;;47.83;12.80;;;7.90;99.90;;;;;;5068449;28;20025;-58
2024/02/06 00:46:02;;;;;;;43.78;11.68;;;7.90;99.90;;;;;;5067141;28;20033;-58
2024/02/06 00:48:28;;;;;;;46.92;10.98;;;7.80;99.90;;;;;;5067066;28;20025;-58
2024/02/06 00:50:54;;;;;;;45.42;11.25;;;7.90;99.90;;;;;;5050397;28;20409;-57
2024/02/06 00:53:19;;;;;;;40.08;10.98;;;7.90;99.90;;;;;;5068189;28;20461;-58
2024/02/06 00:55:45;;;;;;;44.20;10.82;;;7.80;99.90;;;;;;5067449;28;20029;-58
2024/02/06 00:58:10;;;;;;;38.72;11.63;;;7.80;99.90;;;;;;5067020;28;20071;-57
2024/02/06 01:00:36;;;;;;;45.45;11.75;;;7.80;99.90;;;;;;5068207;28;20037;-58
2024/02/06 01:03:02;;;;;;;38.40;12.02;;;7.80;99.90;;;;;;5068122;28;20036;-57
2024/02/06 01:05:27;;;;;;;51.20;12.48;;;7.80;99.90;;;;;;5066737;28;20083;-57
2024/02/06 01:07:53;;;;;;;49.95;11.73;;;7.80;99.90;;;;;;5050032;28;20032;-58
2024/02/06 01:10:19;;;;;;;40.38;11.82;;;7.80;99.90;;;;;;5066822;28;20025;-58
2024/02/06 01:12:44;;;;;;;39.28;11.50;;;7.80;99.90;;;;;;5050080;28;20397;-58
2024/02/06 01:15:10;;;;;;;40.15;11.32;;;7.80;99.90;;;;;;5066659;28;20397;-58
2024/02/06 01:17:35;;;;;;;45.63;11.73;;;7.80;99.90;;;;;;5066699;28;20029;-58
2024/02/06 01:20:01;;;;;;;35.78;10.30;;;7.80;99.90;;;;;;5066575;28;20036;-58
2024/02/06 01:22:27;;;;;;;32.28;9.60;;;7.70;99.90;;;;;;5067768;28;20025;-58
2024/02/06 01:24:52;;;;;;;43.17;11.73;;;7.80;99.90;;;;;;5067665;28;20033;-58
2024/02/06 01:27:19;;;;;;;35.35;10.93;;;7.70;99.90;;;;;;5066400;28;20032;-57
2024/02/06 01:29:44;;;;;;;36.60;11.30;;;7.70;99.90;;;;;;5066265;28;20025;-58
2024/02/06 01:32:10;;;;;;;41.95;11.57;;;7.70;99.90;;;;;;5067578;28;20029;-58
2024/02/06 01:34:35;;;;;;;33.78;10.23;;;7.70;99.90;;;;;;5066220;28;20355;-58
2024/02/06 01:37:01;;;;;;;40.42;10.00;;;7.70;99.90;;;;;;5067388;28;20047;-58
2024/02/06 01:39:26;;;;;;;30.17;9.82;;;7.70;99.90;;;;;;5066044;28;20033;-58
2024/02/06 01:41:52;;;;;;;27.27;10.15;;;7.70;99.90;;;;;;5067364;28;20036;-58
2024/02/06 01:44:18;;;;;;;23.88;9.48;;;7.60;99.90;;;;;;5067447;28;20358;-58
2024/02/06 01:46:44;;;;;;;35.30;10.25;;;7.60;99.90;;;;;;5066061;28;20048;-58
2024/02/06 01:49:09;;;;;;;25.77;8.73;;;7.60;99.90;;;;;;5067174;28;20052;-58
2024/02/06 01:51:36;;;;;;;30.20;9.55;;;7.60;99.90;;;;;;5066043;28;20044;-57
2024/02/06 01:54:02;;;;;;;24.15;9.40;;;7.60;99.90;;;;;;5065939;28;20043;-58
2024/02/06 01:56:27;;;;;;;26.98;9.13;;;7.60;99.90;;;;;;5066027;28;20029;-58
2024/02/06 01:58:53;;;;;;;28.13;9.65;;;7.60;99.90;;;;;;5049023;28;20033;-58
2024/02/06 02:01:19;;;;;;;28.08;9.93;;;7.60;99.90;;;;;;5065764;28;20028;-58
2024/02/06 02:03:44;;;;;;;22.67;9.27;;;7.60;99.90;;;;;;5065549;28;20041;-58
2024/02/06 02:06:10;;;;;;;27.90;9.00;;;7.50;99.90;;;;;;5066029;28;20029;-57
2024/02/06 02:08:35;;;;;;;27.20;8.73;;;7.50;99.90;;;;;;5065502;28;20036;-58
2024/02/06 02:11:04;;;;;;;22.98;8.23;;;7.50;99.90;;;;;;5065750;28;20036;-58
2024/02/06 02:13:30;;;;;;;25.52;8.90;;;7.50;99.90;;;;;;5065536;28;20060;-58
2024/02/06 02:15:57;;;;;;;25.10;9.10;;;7.50;99.90;;;;;;5048839;28;20444;-58
2024/02/06 02:18:22;;;;;;;29.48;9.30;;;7.50;99.90;;;;;;5065559;28;20036;-58
2024/02/06 02:20:48;;;;;;;23.13;8.82;;;7.50;99.90;;;;;;5065156;28;20037;-58
2024/02/06 02:23:13;;;;;;;20.38;8.55;;;7.50;99.90;;;;;;5066624;28;20066;-58
2024/02/06 02:25:39;;;;;;;18.58;8.63;;;7.50;99.90;;;;;;5065333;28;20029;-58
2024/02/06 02:28:05;;;;;;;24.02;8.18;;;7.50;99.90;;;;;;5065257;28;20090;-58
2024/02/06 02:30:31;;;;;;;18.30;7.82;;;7.50;99.90;;;;;;5065092;28;20112;-58
2024/02/06 02:32:56;;;;;;;25.20;8.65;;;7.40;99.90;;;;;;5065648;28;20048;-58
2024/02/06 02:35:29;;;;;;;27.48;8.65;;;7.40;99.90;;;;;;5065506;28;20120;-57
2024/02/06 02:37:54;;;;;;;18.00;8.15;;;7.50;99.90;;;;;;5065321;28;20036;-58
2024/02/06 02:40:20;;;;;;;22.25;8.25;;;7.40;99.90;;;;;;5065300;28;20036;-58
2024/02/06 02:42:45;;;;;;;30.92;8.93;;;7.40;99.90;;;;;;5065083;28;20059;-58
2024/02/06 02:45:11;;;;;;;23.52;8.73;;;7.40;99.90;;;;;;5066307;28;20384;-58
2024/02/06 02:47:37;;;;;;;24.08;8.05;;;7.40;99.90;;;;;;5065009;28;20034;-58
2024/02/06 02:50:03;;;;;;;22.88;8.38;;;7.40;99.90;;;;;;5065034;28;20052;-58
2024/02/06 02:52:29;;;;;;;15.15;7.30;;;7.40;99.90;;;;;;5048352;28;20025;-58
2024/02/06 02:54:54;;;;;;;16.02;7.53;;;7.40;99.90;;;;;;5066243;28;20036;-58
2024/02/06 02:57:20;;;;;;;20.15;8.27;;;7.30;99.90;;;;;;5064915;28;20093;-58
2024/02/06 02:59:46;;;;;;;22.42;7.88;;;7.40;99.90;;;;;;5066261;28;20062;-58
2024/02/06 03:02:11;;;;;;;25.35;8.32;;;7.40;99.90;;;;;;5066302;28;20103;-57
2024/02/06 03:04:37;;;;;;;16.42;7.82;;;7.30;99.90;;;;;;5066330;28;20469;-58
2024/02/06 03:07:04;;;;;;;21.17;7.53;;;7.30;99.90;;;;;;5048057;28;20025;-58
2024/02/06 03:09:29;;;;;;;16.17;6.90;;;7.30;99.90;;;;;;5066378;28;20033;-58
2024/02/06 03:11:55;;;;;;;19.02;7.75;;;7.30;99.90;;;;;;5064873;28;20480;-58
2024/02/06 03:14:21;;;;;;;15.00;7.68;;;7.30;99.90;;;;;;5066353;28;20029;-58
2024/02/06 03:16:47;;;;;;;19.58;7.78;;;7.30;99.90;;;;;;5064786;28;20033;-58
2024/02/06 03:19:12;;;;;;;18.92;7.38;;;7.30;99.90;;;;;;5067994;28;20032;-58
2024/02/06 03:21:38;;;;;;;16.08;7.25;;;7.30;99.90;;;;;;5069028;28;20036;-58
2024/02/06 03:24:04;;;;;;;19.40;7.15;;;7.30;99.90;;;;;;5070088;28;20458;-57
2024/02/06 03:26:29;;;;;;;17.17;8.02;;;7.30;99.90;;;;;;5070080;28;20139;-57
2024/02/06 03:28:55;;;;;;;17.02;7.45;;;7.20;99.90;;;;;;5070625;28;20051;-57
2024/02/06 03:31:20;;;;;;;19.10;7.28;;;7.20;99.90;;;;;;5068711;28;20037;-57
2024/02/06 03:33:46;;;;;;;17.80;7.65;;;7.20;99.90;;;;;;5068542;28;20039;-58
2024/02/06 03:36:11;;;;;;;11.65;6.90;;;7.20;99.90;;;;;;5068713;28;20037;-58
2024/02/06 03:38:37;;;;;;;18.55;7.05;;;7.20;99.90;;;;;;5069747;28;20072;-58
2024/02/06 03:41:03;;;;;;;18.48;7.65;;;7.20;99.90;;;;;;5068487;28;20044;-58
2024/02/06 03:43:28;;;;;;;12.88;6.57;;;7.20;99.90;;;;;;5069661;28;20028;-58
2024/02/06 03:45:54;;;;;;;11.20;6.15;;;7.20;99.90;;;;;;5069418;28;20436;-58
2024/02/06 03:48:20;;;;;;;18.50;6.90;;;7.20;99.90;;;;;;5069502;28;20029;-58
2024/02/06 03:50:45;;;;;;;17.48;6.97;;;7.20;99.90;;;;;;5068053;28;20040;-58
2024/02/06 03:53:11;;;;;;;15.35;6.60;;;7.20;99.90;;;;;;5051503;28;20028;-58
2024/02/06 03:55:37;;;;;;;17.83;7.00;;;7.20;99.90;;;;;;5068446;28;20033;-58
2024/02/06 03:58:03;;;;;;;15.55;6.13;;;7.10;99.90;;;;;;5068254;28;20044;-58
2024/02/06 04:00:29;;;;;;;16.40;6.70;;;7.10;99.90;;;;;;5067948;28;20489;-57
2024/02/06 04:02:55;;;;;;;13.65;6.97;;;7.10;99.90;;;;;;5068034;28;20055;-58
2024/02/06 04:05:20;;;;;;;12.68;6.60;;;7.10;99.90;;;;;;5069257;28;20036;-58
2024/02/06 04:07:46;;;;;;;13.52;6.00;;;7.10;99.90;;;;;;5069057;28;20044;-58
2024/02/06 04:10:12;;;;;;;13.13;6.65;;;7.10;99.90;;;;;;5069153;28;20052;-58
2024/02/06 04:12:38;;;;;;;10.65;6.35;;;7.10;99.90;;;;;;5067800;28;20017;-58
2024/02/06 04:15:04;;;;;;;11.38;6.13;;;7.10;99.90;;;;;;5067814;28;20033;-49
2024/02/06 04:17:29;;;;;;;12.38;6.07;;;7.10;99.90;;;;;;5069008;28;20040;-49
2024/02/06 04:19:55;;;;;;;12.82;6.40;;;7.00;99.90;;;;;;5067600;28;20033;-49
2024/02/06 04:22:20;;;;;;;10.80;6.50;;;7.00;99.90;;;;;;5050684;28;20074;-50
2024/02/06 04:24:47;;;;;;;10.60;5.93;;;7.00;99.90;;;;;;5067689;28;20033;-49
2024/02/06 04:27:12;;;;;;;15.27;6.93;;;7.00;99.90;;;;;;5067472;28;20043;-49
2024/02/06 04:29:38;;;;;;;11.95;6.22;;;7.00;99.90;;;;;;5067812;28;20028;-49
2024/02/06 04:32:04;;;;;;;10.52;6.00;;;7.00;99.90;;;;;;5050712;28;20401;-49
2024/02/06 04:34:30;;;;;;;12.05;5.80;;;7.00;99.90;;;;;;5068621;28;20028;-49
2024/02/06 04:36:56;;;;;;;10.20;6.35;;;7.00;99.90;;;;;;5067320;28;20055;-49
2024/02/06 04:39:21;;;;;;;10.95;6.45;;;7.00;99.90;;;;;;5067311;28;20032;-49
2024/02/06 04:41:47;;;;;;;20.88;6.97;;;7.00;99.90;;;;;;5067406;28;20076;-49
2024/02/06 04:44:12;;;;;;;8.18;5.72;;;7.00;99.90;;;;;;5068583;28;20033;-49
2024/02/06 04:46:38;;;;;;;9.68;6.10;;;6.90;99.90;;;;;;5067150;28;20079;-49
2024/02/06 04:49:03;;;;;;;11.45;5.95;;;6.90;99.90;;;;;;5067099;28;20031;-49
2024/02/06 04:51:29;;;;;;;14.57;6.63;;;6.90;99.90;;;;;;5067109;28;20075;-49
2024/02/06 04:53:55;;;;;;;8.65;6.00;;;6.90;99.90;;;;;;5066982;28;20060;-49
2024/02/06 04:56:22;;;;;;;12.60;6.22;;;6.90;99.90;;;;;;5050164;28;20040;-49
2024/02/06 04:58:49;;;;;;;11.13;6.45;;;6.90;99.90;;;;;;5068463;28;20527;-49
2024/02/06 05:01:15;;;;;;;10.85;6.88;;;6.90;99.90;;;;;;5066977;28;20029;-49
2024/02/06 05:03:41;;;;;;;10.23;5.47;;;6.90;99.90;;;;;;5068053;28;20064;-49
2024/02/06 05:06:07;;;;;;;11.10;6.13;;;6.90;99.90;;;;;;5066867;28;20104;-49
2024/02/06 05:08:32;;;;;;;16.08;6.63;;;6.90;99.90;;;;;;5067811;28;20032;-49
2024/02/06 05:10:58;;;;;;;10.38;6.78;;;6.90;99.90;;;;;;5050125;28;20088;-49
2024/02/06 05:13:23;;;;;;;15.05;6.50;;;6.80;99.90;;;;;;5068118;28;20052;-49
2024/02/06 05:15:49;;;;;;;10.82;6.22;;;6.80;99.90;;;;;;5067968;28;20036;-49
2024/02/06 05:18:14;;;;;;;9.93;6.93;;;6.80;99.90;;;;;;5067944;28;20025;-49
2024/02/06 05:20:40;;;;;;;11.35;6.55;;;6.80;99.90;;;;;;5066526;28;20040;-49
2024/02/06 05:23:06;;;;;;;10.52;6.22;;;6.80;99.90;;;;;;5066582;28;20040;-49
2024/02/06 05:25:31;;;;;;;11.10;7.07;;;6.80;99.90;;;;;;5067832;28;20055;-49
2024/02/06 05:27:58;;;;;;;12.00;6.57;;;6.80;99.90;;;;;;5066294;28;20029;-49
2024/02/06 05:30:24;;;;;;;13.13;6.97;;;6.80;99.90;;;;;;5049963;28;20048;-49
2024/02/06 05:32:49;;;;;;;11.52;6.65;;;6.80;99.90;;;;;;5068040;28;20029;-50
2024/02/06 05:35:15;;;;;;;12.02;6.63;;;6.70;99.90;;;;;;5066633;28;20040;-49
2024/02/06 05:37:40;;;;;;;14.52;6.82;;;6.70;99.90;;;;;;5066137;28;20040;-49
2024/02/06 05:40:07;;;;;;;11.05;6.65;;;6.70;99.90;;;;;;5067372;28;20032;-49
2024/02/06 05:42:33;;;;;;;9.63;6.05;;;6.70;99.90;;;;;;5067306;28;20025;-49
2024/02/06 05:44:58;;;;;;;10.55;6.72;;;6.70;99.90;;;;;;5068194;28;20078;-49
2024/02/06 05:47:25;;;;;;;8.57;5.72;;;6.70;99.90;;;;;;5066500;28;20105;-49
2024/02/06 05:49:50;;;;;;;11.50;6.43;;;6.70;99.90;;;;;;5067756;28;20032;-49
2024/02/06 05:52:16;;;;;;;17.05;6.90;;;6.70;99.90;;;;;;5066093;28;20029;-49
2024/02/06 05:54:42;;;;;;;17.70;6.80;;;6.70;99.90;;;;;;5066053;28;20108;-49
2024/02/06 05:57:07;;;;;;;16.02;6.93;;;6.70;99.90;;;;;;5067198;28;20029;-49
2024/02/06 05:59:33;;;;;;;13.80;7.07;;;6.70;99.90;;;;;;5067001;28;20029;-49
2024/02/06 06:01:59;;;;;;;15.27;6.53;;;6.70;99.90;;;;;;5065794;28;20025;-49
2024/02/06 06:04:24;;;;;;;14.55;7.00;;;6.70;99.90;;;;;;5065545;28;20024;-49
2024/02/06 06:06:50;;;;;;;31.17;8.93;;;6.70;99.90;;;;;;5066291;28;20037;-49
2024/02/06 06:09:15;;;;;;;19.20;7.15;;;6.70;99.90;;;;;;5065330;28;20029;-49
2024/02/06 06:11:41;;;;;;;17.17;7.93;;;6.70;99.90;;;;;;5048727;28;20031;-49
2024/02/06 06:14:06;;;;;;;15.70;6.55;;;6.70;99.90;;;;;;5066943;28;20083;-49
2024/02/06 06:16:32;;;;;;;21.95;7.72;;;6.70;99.90;;;;;;5065771;28;20036;-49
2024/02/06 06:18:57;;;;;;;24.75;7.28;;;6.70;99.90;;;;;;5065607;28;20036;-50
2024/02/06 06:21:23;;;;;;;20.92;7.85;;;6.70;99.90;;;;;;5065576;28;20025;-49
2024/02/06 06:23:48;;;;;;;19.95;7.85;;;6.60;99.90;;;;;;5066512;28;20419;-49
2024/02/06 06:26:14;;;;;;;45.50;7.75;;;6.60;99.90;;;;;;5065196;28;20032;-49
2024/02/06 06:28:39;;;;;;;33.60;8.43;;;6.60;99.90;;;;;;5066558;28;20029;-49
2024/02/06 06:31:07;;;;;;;26.63;9.15;;;6.60;99.90;;;;;;5065260;28;20036;-49
2024/02/06 06:33:32;;;;;;;28.65;8.70;;;6.60;99.90;;;;;;5065259;28;20025;-49
2024/02/06 06:35:58;;;;;;;19.42;7.95;;;6.60;99.90;;;;;;5066195;28;20048;-49
2024/02/06 06:38:23;;;;;;;29.63;8.82;;;6.60;99.90;;;;;;5048399;28;20534;-49
2024/02/06 06:40:49;;;;;;;27.42;8.70;;;6.60;99.90;;;;;;5065110;28;20067;-49
2024/02/06 06:43:15;;;;;;;32.75;8.82;;;6.60;99.90;;;;;;5066194;28;20068;-49
2024/02/06 06:45:41;;;;;;;95.18;13.98;;;6.60;99.90;;;;;;5065036;28;20028;-49
2024/02/06 06:48:07;;;;;;;63.15;11.32;;;6.60;99.90;;;;;;5066251;28;20033;-49
2024/02/06 06:50:32;;;;;;;63.33;11.02;;;6.60;99.90;;;;;;5048364;28;20025;-49
2024/02/06 06:52:59;;;;;;;49.35;10.98;;;6.60;99.90;;;;;;5064218;28;20044;-49
2024/02/06 06:55:24;;;;;;;53.03;10.60;;;6.60;99.90;;;;;;5064993;28;20025;-49
2024/02/06 06:57:50;;;;;;;48.70;9.85;;;6.60;99.90;;;;;;5066098;28;20032;-49
2024/02/06 07:00:16;;;;;;;39.08;10.57;;;6.60;99.90;;;;;;5064981;28;20080;-49
2024/02/06 07:02:41;;;;;;;36.58;9.50;;;6.50;99.90;;;;;;5066229;28;20029;-49
2024/02/06 07:05:10;;;;;;;52.50;11.82;;;6.60;99.90;;;;;;5064685;28;20021;-49
2024/02/06 07:07:36;;;;;;;56.83;10.60;;;6.50;99.90;;;;;;5064533;28;20025;-49
2024/02/06 07:10:02;;;;;;;38.30;10.52;;;6.50;99.90;;;;;;5065984;28;20061;-49
2024/02/06 07:12:28;;;;;;;35.80;9.80;;;6.50;99.90;;;;;;5064754;28;20028;-49
2024/02/06 07:14:54;;;;;;;40.10;9.13;;;6.50;99.90;;;;;;5066001;28;20033;-49
2024/02/06 07:17:19;;;;;;;36.28;9.43;;;6.50;99.90;;;;;;5065856;28;20021;-50
2024/02/06 07:19:45;;;;;;;35.33;10.43;;;6.50;99.90;;;;;;5065830;28;20043;-49
2024/02/06 07:22:10;;;;;;;41.70;9.05;;;6.50;99.90;;;;;;5064448;28;20025;-49
2024/02/06 07:24:36;;;;;;;36.30;9.63;;;6.50;99.90;;;;;;5065982;28;20032;-49
2024/02/06 07:27:01;;;;;;;38.78;9.45;;;6.50;99.90;;;;;;5060745;28;20461;-49
2024/02/06 07:29:27;;;;;;;38.50;11.00;;;6.50;99.90;;;;;;5061285;28;20029;-49
2024/02/06 07:31:52;;;;;;;37.83;9.73;;;6.50;99.90;;;;;;5059212;28;20021;-49
2024/02/06 07:34:21;;;;;;;31.52;8.93;;;6.50;99.90;;;;;;5059333;28;20025;-49
2024/02/06 07:36:46;;;;;;;35.55;9.05;;;6.50;99.90;;;;;;5061453;28;20048;-49
2024/02/06 07:39:12;;;;;;;40.30;9.65;;;6.50;99.90;;;;;;5060335;28;20021;-49
2024/02/06 07:41:38;;;;;;;28.42;9.95;;;6.50;99.90;;;;;;5059773;28;20124;-49
2024/02/06 07:44:04;;;;;;;28.10;9.43;;;6.50;99.90;;;;;;5060847;28;20029;-49
2024/02/06 07:46:30;;;;;;;33.03;9.80;;;6.50;99.90;;;;;;5060568;28;20112;-49
2024/02/06 07:48:56;;;;;;;29.08;9.13;;;6.50;99.90;;;;;;5055910;28;20067;-49
2024/02/06 07:51:22;;;;;;;38.83;10.10;;;6.60;99.90;;;;;;5061805;28;20100;-49
2024/02/06 07:53:49;;;;;;;22.80;8.48;;;6.50;99.90;;;;;;5053310;28;20107;-49
2024/02/06 07:56:19;;;;;;;35.30;9.65;;;6.50;99.90;;;;;;5062374;28;20045;-49
2024/02/06 07:58:45;;;;;;;35.50;9.02;;;6.50;99.90;;;;;;5065547;28;20111;-49
2024/02/06 08:01:11;;;;;;;27.33;9.25;;;6.50;99.90;;;;;;5065554;28;20033;-49
2024/02/06 08:03:37;;;;;;;24.83;8.80;;;6.50;99.90;;;;;;5064597;28;20049;-49
2024/02/06 08:06:03;;;;;;;29.92;9.02;;;6.50;99.90;;;;;;5068026;28;20032;-49
2024/02/06 08:08:28;;;;;;;19.77;8.57;;;6.50;99.90;;;;;;5067593;28;20021;-49
2024/02/06 08:10:54;;;;;;;26.80;8.98;;;6.50;99.90;;;;;;5069111;28;20029;-49
2024/02/06 08:13:19;;;;;;;30.92;9.32;;;6.60;99.90;;;;;;5067717;28;20092;-49
2024/02/06 08:15:45;;;;;;;27.88;8.77;;;6.60;99.90;;;;;;5067666;28;20033;-58
2024/02/06 08:18:11;;;;;;;30.20;9.05;;;6.60;99.90;;;;;;5067715;28;20041;-58
2024/02/06 08:20:36;;;;;;;23.80;8.95;;;6.60;99.90;;;;;;5067406;28;20040;-58
2024/02/06 08:23:02;;;;;;;27.98;9.07;;;6.60;99.90;;;;;;5067544;28;20031;-58
2024/02/06 08:25:28;;;;;;;26.67;8.45;;;6.60;99.90;;;;;;5068813;28;20111;-58
2024/02/06 08:27:54;;;;;;;25.30;9.15;;;6.60;99.90;;;;;;5067401;28;20017;-58
2024/02/06 08:30:19;;;;;;;21.88;9.10;;;6.60;99.90;;;;;;5067430;28;20059;-58
2024/02/06 08:32:45;;;;;;;33.83;9.50;;;6.60;99.90;;;;;;5067434;28;20177;-58
2024/02/06 08:35:11;;;;;;;44.47;10.13;;;6.60;99.90;;;;;;5068748;28;20037;-58
2024/02/06 08:37:37;;;;;;;45.83;10.13;;;6.60;99.90;;;;;;5067586;28;20051;-58
2024/02/06 08:40:06;;;;;;;50.20;9.85;;;6.70;99.90;;;;;;5067570;28;20160;-58
2024/02/06 08:42:35;;;;;;;44.08;9.55;;;6.70;99.90;;;;;;5066250;28;20032;-58
2024/02/06 08:45:01;;;;;;;35.03;10.05;;;6.70;99.90;;;;;;5067147;28;20036;-58
2024/02/06 08:47:27;;;;;;;40.10;10.15;;;6.70;99.90;;;;;;5067752;28;20021;-58
2024/02/06 08:49:53;;;;;;;39.90;10.43;;;6.70;99.90;;;;;;5067617;28;20033;-58
2024/02/06 08:52:18;;;;;;;49.22;10.93;;;6.70;99.90;;;;;;5066592;28;20044;-56
2024/02/06 08:54:44;;;;;;;55.67;10.57;;;6.70;99.90;;;;;;5067057;28;20033;-57
2024/02/06 08:57:09;;;;;;;53.50;11.20;;;6.70;99.90;;;;;;5067171;28;20032;-58
2024/02/06 08:59:35;;;;;;;45.00;11.30;;;6.70;99.90;;;;;;5068538;28;20021;-58
2024/02/06 09:02:02;;;;;;;53.85;11.18;;;6.80;99.90;;;;;;5080015;28;20029;-58
2024/02/06 09:04:28;;;;;;;60.58;11.48;;;6.80;99.90;;;;;;5068472;28;20025;-58
2024/02/06 09:06:54;;;;;;;44.85;9.95;;;6.80;99.90;;;;;;5049896;28;20044;-58
2024/02/06 09:09:20;;;;;;;40.05;9.43;;;6.80;99.90;;;;;;5067913;28;20029;-58
2024/02/06 09:11:46;;;;;;;43.22;10.40;;;6.80;99.90;;;;;;5066336;28;20029;-58
2024/02/06 09:14:11;;;;;;;46.28;10.25;;;6.80;99.90;;;;;;5056549;28;20035;-58
2024/02/06 09:16:37;;;;;;;49.55;10.93;;;6.80;99.90;;;;;;5080911;28;20031;-58
2024/02/06 09:19:03;;;;;;;69.95;13.75;;;6.90;99.90;;;;;;5070324;28;20511;-58
2024/02/06 09:21:29;;;;;;;48.50;11.43;;;6.90;99.90;;;;;;5078369;28;20021;-58
2024/02/06 09:23:54;;;;;;;99.43;14.35;;;6.90;99.90;;;;;;5075641;28;20088;-58
2024/02/06 09:26:20;;;;;;;113.75;14.60;;;6.90;99.90;;;;;;5066706;28;20473;-58
2024/02/06 09:28:45;;;;;;;99.43;15.02;;;6.90;99.90;;;;;;5083949;28;20422;-58
2024/02/06 09:31:14;;;;;;;79.80;14.32;;;7.00;99.90;;;;;;5066812;28;20051;-57
2024/02/06 09:33:39;;;;;;;89.03;15.85;;;7.00;99.90;;;;;;5076109;28;20033;-58
2024/02/06 09:36:06;;;;;;;151.60;19.17;;;7.00;99.90;;;;;;5050457;28;20063;-58
2024/02/06 09:38:32;;;;;;;113.82;14.27;;;7.00;99.90;;;;;;5044132;28;20037;-58
2024/02/06 09:40:58;;;;;;;72.00;14.18;;;7.00;99.90;;;;;;5044070;28;20025;-58
2024/02/06 09:43:24;;;;;;;86.38;12.60;;;7.00;99.90;;;;;;5044191;28;20033;-58
2024/02/06 09:45:52;;;;;;;106.32;15.90;;;7.00;99.90;;;;;;5045229;28;20022;-58
2024/02/06 09:48:18;;;;;;;76.40;14.32;;;7.00;99.90;;;;;;5044083;28;20033;-58
2024/02/06 09:50:43;;;;;;;62.50;12.85;;;7.10;99.90;;;;;;5044823;28;20389;-58
2024/02/06 09:53:09;;;;;;;66.57;12.70;;;7.10;99.90;;;;;;5053703;28;20065;-58
2024/02/06 09:55:40;;;;;;;49.42;11.63;;;7.10;99.90;;;;;;5057170;28;20096;-58
2024/02/06 09:58:06;;;;;;;57.42;11.50;;;7.10;99.90;;;;;;5062322;28;20025;-58
2024/02/06 10:00:32;;;;;;;50.85;10.60;;;7.20;99.90;;;;;;5075974;28;20036;-57
2024/02/06 10:02:58;;;;;;;58.85;11.43;;;7.10;99.90;;;;;;5062090;28;20101;-57
2024/02/06 10:05:26;;;;;;;60.40;12.63;;;7.20;99.90;;;;;;5068804;28;20028;-58
2024/02/06 10:07:52;;;;;;;107.20;15.70;;;7.20;99.90;;;;;;5085386;28;20032;-58
2024/02/06 10:10:18;;;;;;;81.70;12.20;;;7.20;99.90;;;;;;5084096;28;20024;-58
2024/02/06 10:12:44;;;;;;;56.30;11.32;;;7.20;99.90;;;;;;5076894;28;20099;-58
2024/02/06 10:15:17;;;;;;;58.28;11.23;;;7.20;99.90;;;;;;5061157;28;20082;-58
2024/02/06 10:17:43;;;;;;;60.28;11.32;;;7.20;99.90;;;;;;5083155;28;20055;-58
2024/02/06 10:20:09;;;;;;;50.35;10.80;;;7.30;99.90;;;;;;5084465;28;20028;-58
2024/02/06 10:22:35;;;;;;;38.53;10.70;;;7.30;99.90;;;;;;5084247;28;20028;-58
2024/02/06 10:25:04;;;;;;;37.95;10.32;;;7.30;99.90;;;;;;5083319;28;20093;-58
2024/02/06 10:27:32;;;;;;;41.13;9.15;;;7.30;99.90;;;;;;5078224;28;20072;-57
2024/02/06 10:29:59;;;;;;;40.55;9.10;;;7.30;99.90;;;;;;5065104;28;20068;-58
2024/02/06 10:32:30;;;;;;;58.17;10.10;;;7.30;99.90;;;;;;5068247;28;20076;-57
2024/02/06 10:35:02;;;;;;;34.42;9.32;;;7.40;99.90;;;;;;5028848;28;20476;-58
2024/02/06 10:37:28;;;;;;;55.05;9.18;;;7.40;99.90;;;;;;5044770;28;20037;-57
2024/02/06 10:39:54;;;;;;;32.45;8.30;;;7.40;99.90;;;;;;5044575;28;20101;-58
2024/02/06 10:42:20;;;;;;;49.95;9.35;;;7.40;99.90;;;;;;5030442;28;20021;-57
2024/02/06 10:44:46;;;;;;;41.80;9.43;;;7.40;99.90;;;;;;5076641;28;20033;-57
2024/02/06 10:47:14;;;;;;;33.40;7.80;;;7.50;99.90;;;;;;5033951;28;20045;-58
2024/02/06 10:49:40;;;;;;;38.45;8.15;;;7.40;99.90;;;;;;5061195;28;20060;-58
2024/02/06 10:52:07;;;;;;;34.15;7.85;;;7.40;99.90;;;;;;5059923;28;20501;-58
2024/02/06 10:54:34;;;;;;;59.88;9.60;;;7.50;99.90;;;;;;5057851;28;20454;-58
2024/02/06 10:57:04;;;;;;;64.75;9.38;;;7.50;99.90;;;;;;5060843;28;20033;-58
2024/02/06 10:59:50;;;;;;;36.33;7.70;;;7.50;99.90;;;;;;5064452;28;20017;-58
2024/02/06 11:02:29;;;;;;;30.52;6.57;;;7.50;99.90;;;;;;5046009;28;20030;-57
2024/02/06 11:05:20;;;;;;;22.48;6.72;;;7.50;99.90;;;;;;5059430;28;20056;-58
2024/02/06 11:07:54;;;;;;;26.92;6.43;;;7.50;99.90;;;;;;5054596;28;20047;-58
2024/02/06 11:10:21;;;;;;;41.58;6.88;;;7.60;99.90;;;;;;5057840;28;20037;-58
2024/02/06 11:12:48;;;;;;;25.65;6.93;;;7.60;99.90;;;;;;5079399;28;20025;-58
2024/02/06 11:15:15;;;;;;;26.50;6.65;;;7.60;99.90;;;;;;5045127;28;20026;-59
2024/02/06 11:17:41;;;;;;;61.13;8.48;;;7.60;99.90;;;;;;5048022;28;20025;-59
2024/02/06 11:20:13;;;;;;;35.83;7.63;;;7.60;99.90;;;;;;5055192;28;20033;-58
2024/02/06 11:22:42;;;;;;;38.63;7.72;;;7.60;99.90;;;;;;5052281;28;20527;-58
2024/02/06 11:25:09;;;;;;;44.63;7.90;;;7.60;99.90;;;;;;5064829;28;20025;-58
2024/02/06 11:27:35;;;;;;;71.43;8.98;;;7.60;99.90;;;;;;5056545;28;20381;-58
2024/02/06 11:30:01;;;;;;;57.58;10.80;;;7.60;99.90;;;;;;5047797;28;20040;-58
2024/02/06 11:32:27;;;;;;;42.60;7.38;;;7.60;99.90;;;;;;5044987;28;20026;-57
2024/02/06 11:34:52;;;;;;;37.58;8.10;;;7.70;99.90;;;;;;5048281;28;20041;-58
2024/02/06 11:37:30;;;;;;;49.80;7.45;;;7.70;99.90;;;;;;5053054;28;20051;-57
2024/02/06 11:40:06;;;;;;;33.63;7.07;;;7.70;99.90;;;;;;5061566;28;20033;-58
2024/02/06 11:42:33;;;;;;;41.00;6.88;;;7.70;99.90;;;;;;5058928;28;20033;-57
2024/02/06 11:45:05;;;;;;;64.05;8.52;;;7.70;99.90;;;;;;5061798;28;20029;-58
2024/02/06 11:47:31;;;;;;;57.15;8.55;;;7.70;99.90;;;;;;5067365;28;20035;-57
2024/02/06 11:50:11;;;;;;;39.05;7.88;;;7.80;99.90;;;;;;5045421;28;20108;-58
2024/02/06 11:52:36;;;;;;;55.10;7.32;;;7.80;99.90;;;;;;5058770;28;20556;-58
2024/02/06 11:55:03;;;;;;;41.83;7.15;;;7.80;99.90;;;;;;5056092;28;20041;-58
2024/02/06 11:57:30;;;;;;;50.80;7.75;;;7.80;99.90;;;;;;5061276;28;20016;-57
2024/02/06 11:59:55;;;;;;;63.47;9.57;;;7.80;99.90;;;;;;5058601;28;20041;-57
2024/02/06 12:02:21;;;;;;;96.47;12.23;;;7.90;99.90;;;;;;5040230;28;20031;-58
2024/02/06 12:04:46;;;;;;;66.60;8.93;;;7.80;99.90;;;;;;5059686;28;20102;-57
2024/02/06 12:07:12;;;;;;;48.72;7.07;;;7.90;99.90;;;;;;5061210;28;20021;-58
2024/02/06 12:09:41;;;;;;;39.08;7.10;;;7.90;99.90;;;;;;5044399;28;20092;-57
2024/02/06 12:12:11;;;;;;;54.90;7.65;;;7.90;99.90;;;;;;5056007;28;20028;-58
2024/02/06 12:14:36;;;;;;;52.08;8.32;;;7.90;99.90;;;;;;5042590;28;20033;-58
2024/02/06 12:17:02;;;;;;;51.53;6.57;;;7.90;99.90;;;;;;5059268;28;20228;-58
2024/02/06 12:19:28;;;;;;;43.67;6.10;;;7.90;99.90;;;;;;5052989;28;20082;-58
2024/02/06 12:22:05;;;;;;;46.95;6.90;;;7.90;99.90;;;;;;5056232;28;20033;-58
2024/02/06 12:24:31;;;;;;;37.53;6.13;;;7.90;99.90;;;;;;5058398;28;20497;-58
2024/02/06 12:27:06;;;;;;;58.10;8.15;;;8.00;99.90;;;;;;5033479;28;20049;-58
2024/02/06 12:29:42;;;;;;;44.55;7.28;;;8.00;99.90;;;;;;5054341;28;20080;-58
2024/02/06 12:32:08;;;;;;;33.22;5.55;;;8.00;99.90;;;;;;5055542;28;20025;-58
2024/02/06 12:34:36;;;;;;;36.30;5.82;;;8.00;99.90;;;;;;5039016;28;20148;-58
2024/02/06 12:37:02;;;;;;;33.75;5.97;;;8.00;99.90;;;;;;5058351;28;20033;-58
2024/02/06 12:39:30;;;;;;;42.03;5.82;;;8.00;99.90;;;;;;5056487;28;20052;-58